Time;durP1;ratioP1;P1;durP2;ratioP2;P2;SDS_P1;SDS_P2;PMS_P1;PMS_P2;Temp;Humidity;BMP_temperature;BMP_pressure;BME280_temperature;BME280_humidity;BME280_pressure;Samples;Min_cycle;Max_cycle;Signal;HPM_P1;HPM_P2
2023/05/22 00:00:35;;;;;;;23.52;15.05;;;;;;;15.98;100.00;101373.16;4981565;28;20039;-72
2023/05/22 00:03:02;;;;;;;24.55;14.48;;;;;;;15.96;100.00;101377.97;4978871;28;20105;-73
2023/05/22 00:05:28;;;;;;;22.77;14.13;;;;;;;15.88;100.00;101378.25;4978843;28;20053;-72
2023/05/22 00:07:53;;;;;;;26.95;15.52;;;;;;;15.93;100.00;101386.47;4982120;28;20466;-72
2023/05/22 00:10:18;;;;;;;25.25;15.85;;;;;;;15.87;100.00;101387.34;4975435;28;20429;-72
2023/05/22 00:12:44;;;;;;;25.90;16.70;;;;;;;15.94;100.00;101393.50;4978279;28;20046;-72
2023/05/22 00:15:10;;;;;;;22.27;14.55;;;;;;;15.84;100.00;101391.28;4980282;28;20566;-72
2023/05/22 00:17:35;;;;;;;24.10;15.35;;;;;;;15.92;100.00;101392.88;4961963;28;20046;-72
2023/05/22 00:20:09;;;;;;;23.42;15.48;;;;;;;15.93;100.00;101395.38;4978875;28;20047;-72
2023/05/22 00:22:35;;;;;;;24.05;14.57;;;;;;;15.93;100.00;101386.47;4980921;28;20031;-72
2023/05/22 00:25:05;;;;;;;49.40;18.88;;;;;;;15.90;100.00;101381.50;4982134;28;20070;-72
2023/05/22 00:27:31;;;;;;;27.08;15.23;;;;;;;15.88;100.00;101380.94;4978285;28;20026;-72
2023/05/22 00:29:57;;;;;;;24.75;15.55;;;;;;;15.88;100.00;101379.06;4983732;28;20081;-72
2023/05/22 00:32:24;;;;;;;23.98;14.27;;;;;;;15.92;100.00;101385.63;4980269;28;20042;-72
2023/05/22 00:34:50;;;;;;;22.63;15.32;;;;;;;15.89;100.00;101374.50;4981539;28;20037;-72
2023/05/22 00:37:15;;;;;;;22.33;14.50;;;;;;;15.90;100.00;101379.66;4980079;28;20421;-72
2023/05/22 00:39:40;;;;;;;22.92;15.55;;;;;;;15.95;100.00;101379.00;4980191;28;20121;-72
2023/05/22 00:42:06;;;;;;;25.95;16.30;;;;;;;15.89;100.00;101374.50;4982501;28;20461;-72
2023/05/22 00:44:31;;;;;;;23.52;16.15;;;;;;;15.88;100.00;101378.25;4964278;28;20035;-72
2023/05/22 00:46:57;;;;;;;24.65;16.08;;;;;;;15.91;100.00;101383.19;4978687;28;20026;-72
2023/05/22 00:49:22;;;;;;;24.05;15.20;;;;;;;15.89;100.00;101378.00;4983245;28;20030;-72
2023/05/22 00:51:48;;;;;;;26.08;17.08;;;;;;;15.84;100.00;101379.72;4975775;28;20117;-72
2023/05/22 00:54:15;;;;;;;28.70;17.58;;;;;;;15.85;100.00;101379.50;4980020;28;20073;-72
2023/05/22 00:56:41;;;;;;;24.70;15.68;;;;;;;15.80;100.00;101365.88;4983600;28;20617;-72
2023/05/22 00:59:07;;;;;;;22.30;14.48;;;;;;;15.83;100.00;101367.31;4991324;28;20124;-70
2023/05/22 01:01:37;;;;;;;25.55;18.15;;;;;;;15.72;100.00;101358.91;4992172;28;20030;-71
2023/05/22 01:04:03;;;;;;;24.52;17.25;;;;;;;15.75;100.00;101374.59;4992197;28;20036;-71
2023/05/22 01:06:30;;;;;;;27.80;17.23;;;;;;;15.69;100.00;101364.72;4992564;28;20034;-70
2023/05/22 01:08:56;;;;;;;27.42;17.02;;;;;;;15.75;100.00;101365.72;4973235;28;20034;-70
2023/05/22 01:11:36;;;;;;;25.73;17.60;;;;;;;15.68;100.00;101367.59;4973364;28;20043;-70
2023/05/22 01:14:13;;;;;;;24.67;15.85;;;;;;;15.67;100.00;101361.38;4991857;28;20022;-70
2023/05/22 01:16:55;;;;;;;26.88;16.45;;;;;;;15.57;100.00;101358.34;4991771;28;20030;-70
2023/05/22 01:19:49;;;;;;;23.13;16.37;;;;;;;15.56;100.00;101364.75;4991919;28;20026;-70
2023/05/22 01:22:24;;;;;;;27.38;17.23;;;;;;;15.61;100.00;101361.41;4992103;28;20466;-70
2023/05/22 01:25:09;;;;;;;23.50;15.07;;;;;;;15.59;100.00;101358.97;4973119;28;20035;-70
2023/05/22 01:27:49;;;;;;;27.42;18.67;;;;;;;15.58;100.00;101354.63;4973138;28;20560;-70
2023/05/22 01:30:26;;;;;;;24.75;16.92;;;;;;;15.59;100.00;101348.22;4973184;28;20054;-70
2023/05/22 01:32:56;;;;;;;24.80;16.23;;;;;;;15.54;100.00;101358.78;4972886;28;20065;-70
2023/05/22 01:35:22;;;;;;;25.50;17.02;;;;;;;15.52;100.00;101360.88;4972963;28;20101;-70
2023/05/22 01:37:49;;;;;;;27.40;16.92;;;;;;;15.47;100.00;101358.81;4973019;28;20030;-70
2023/05/22 01:40:15;;;;;;;27.75;17.27;;;;;;;15.43;100.00;101371.06;4972897;28;20114;-71
2023/05/22 01:42:40;;;;;;;27.85;16.50;;;;;;;15.37;100.00;101357.66;4991129;28;20877;-70
2023/05/22 01:45:09;;;;;;;25.27;16.58;;;;;;;15.30;100.00;101357.69;4991724;28;20444;-70
2023/05/22 01:47:35;;;;;;;26.52;18.15;;;;;;;15.32;100.00;101355.59;4991392;28;20031;-70
2023/05/22 01:50:00;;;;;;;25.80;17.48;;;;;;;15.23;100.00;101352.34;4991332;28;20496;-70
2023/05/22 01:52:43;;;;;;;27.02;17.13;;;;;;;15.22;100.00;101356.09;4991230;28;20037;-70
2023/05/22 01:55:16;;;;;;;23.73;15.82;;;;;;;15.17;100.00;101353.22;4991221;28;20035;-70
2023/05/22 01:58:20;;;;;;;25.55;17.27;;;;;;;15.23;100.00;101349.66;4991241;28;20560;-70
2023/05/22 02:00:46;;;;;;;27.35;16.48;;;;;;;15.10;100.00;101347.06;4990554;28;20035;-70
2023/05/22 02:03:21;;;;;;;27.40;18.90;;;;;;;15.12;100.00;101353.84;4991319;28;20386;-70
2023/05/22 02:05:50;;;;;;;26.17;17.83;;;;;;;15.10;100.00;101352.44;4990590;28;20096;-70
2023/05/22 02:08:16;;;;;;;28.45;17.73;;;;;;;15.06;100.00;101349.34;4990954;28;20466;-70
2023/05/22 02:10:43;;;;;;;24.30;15.52;;;;;;;15.02;100.00;101350.81;4990834;28;20046;-70
2023/05/22 02:13:09;;;;;;;22.38;15.63;;;;;;;15.01;100.00;101346.47;4990924;28;20083;-70
2023/05/22 02:15:35;;;;;;;25.50;16.30;;;;;;;15.03;100.00;101346.25;4973213;28;20049;-70
2023/05/22 02:18:00;;;;;;;24.42;15.32;;;;;;;15.02;100.00;101352.69;4990764;28;20034;-70
2023/05/22 02:20:26;;;;;;;25.52;16.98;;;;;;;14.93;100.00;101344.00;4990700;28;20046;-70
2023/05/22 02:22:51;;;;;;;26.45;17.38;;;;;;;14.95;100.00;101347.31;4990872;28;20022;-70
2023/05/22 02:25:17;;;;;;;28.15;17.20;;;;;;;14.84;100.00;101332.69;4972123;28;20143;-70
2023/05/22 02:27:43;;;;;;;26.08;16.10;;;;;;;14.91;100.00;101338.06;4990164;28;20068;-71
2023/05/22 02:30:10;;;;;;;25.85;18.05;;;;;;;14.91;100.00;101346.13;4990615;28;20034;-70
2023/05/22 02:32:36;;;;;;;28.25;18.48;;;;;;;14.84;100.00;101331.88;4990451;28;20030;-70
2023/05/22 02:35:02;;;;;;;26.85;17.88;;;;;;;14.87;100.00;101336.81;4990426;28;20030;-70
2023/05/22 02:37:27;;;;;;;26.80;16.42;;;;;;;14.81;100.00;101332.31;4972530;28;20375;-70
2023/05/22 02:39:53;;;;;;;27.55;17.25;;;;;;;14.81;100.00;101330.44;4990497;28;20073;-70
2023/05/22 02:42:18;;;;;;;26.73;18.75;;;;;;;14.81;100.00;101337.69;4990470;28;20420;-70
2023/05/22 02:44:43;;;;;;;26.52;19.33;;;;;;;14.74;100.00;101332.31;4990127;28;20023;-70
2023/05/22 02:47:09;;;;;;;28.90;17.83;;;;;;;14.76;100.00;101332.13;4990188;28;20540;-70
2023/05/22 02:49:34;;;;;;;28.02;19.00;;;;;;;14.72;100.00;101331.69;4990087;28;20041;-70
2023/05/22 02:52:00;;;;;;;27.05;19.52;;;;;;;14.73;100.00;101333.38;4990137;28;20037;-70
2023/05/22 02:54:25;;;;;;;25.85;17.77;;;;;;;14.65;100.00;101329.06;4990100;28;20497;-70
2023/05/22 02:56:51;;;;;;;27.63;18.50;;;;;;;14.66;100.00;101333.38;4972726;28;20076;-70
2023/05/22 02:59:16;;;;;;;29.88;20.50;;;;;;;14.57;100.00;101320.41;4989955;28;20490;-70
2023/05/22 03:01:43;;;;;;;31.10;18.55;;;;;;;14.60;100.00;101320.00;4990064;28;20031;-70
2023/05/22 03:04:08;;;;;;;30.58;20.00;;;;;;;14.61;100.00;101322.44;4989821;28;20027;-70
2023/05/22 03:06:34;;;;;;;31.38;18.63;;;;;;;14.60;100.00;101328.88;4989948;28;20057;-70
2023/05/22 03:08:59;;;;;;;27.20;18.95;;;;;;;14.58;100.00;101327.44;4989930;28;20479;-70
2023/05/22 03:11:25;;;;;;;27.17;18.83;;;;;;;14.52;100.00;101322.88;4989833;28;20046;-70
2023/05/22 03:13:50;;;;;;;29.40;18.88;;;;;;;14.55;100.00;101322.50;4989653;28;20486;-70
2023/05/22 03:16:16;;;;;;;30.85;18.77;;;;;;;14.51;100.00;101319.34;4988906;28;20485;-70
2023/05/22 03:18:41;;;;;;;28.50;20.02;;;;;;;14.50;100.00;101320.41;4989653;28;20466;-70
2023/05/22 03:21:06;;;;;;;28.38;17.90;;;;;;;14.48;100.00;101320.59;4989531;28;20117;-70
2023/05/22 03:23:32;;;;;;;33.22;20.00;;;;;;;14.49;100.00;101316.06;4989757;28;20026;-70
2023/05/22 03:25:57;;;;;;;28.20;17.90;;;;;;;14.46;100.00;101317.31;4989610;28;20371;-70
2023/05/22 03:28:22;;;;;;;31.05;19.50;;;;;;;14.47;100.00;101318.97;4989687;28;20458;-70
2023/05/22 03:30:48;;;;;;;32.28;19.17;;;;;;;14.48;100.00;101317.09;4989483;28;20453;-70
2023/05/22 03:33:13;;;;;;;28.05;17.88;;;;;;;14.44;100.00;101318.56;4989347;28;20030;-70
2023/05/22 03:35:38;;;;;;;33.40;21.17;;;;;;;14.39;100.00;101321.06;4989403;28;20071;-70
2023/05/22 03:38:04;;;;;;;26.92;17.63;;;;;;;14.37;100.00;101318.56;4989407;28;20607;-70
2023/05/22 03:40:29;;;;;;;28.58;20.00;;;;;;;14.37;100.00;101321.25;4989214;28;20061;-70
2023/05/22 03:42:54;;;;;;;29.10;19.55;;;;;;;14.30;100.00;101319.63;4989177;28;20026;-70
2023/05/22 03:45:20;;;;;;;30.80;18.50;;;;;;;14.29;100.00;101316.13;4989060;28;20097;-70
2023/05/22 03:47:45;;;;;;;29.23;20.92;;;;;;;14.30;100.00;101320.44;4989127;28;20030;-70
2023/05/22 03:50:11;;;;;;;30.77;19.08;;;;;;;14.31;100.00;101311.38;4989189;28;20489;-70
2023/05/22 03:52:36;;;;;;;33.78;21.25;;;;;;;14.27;100.00;101312.81;4989066;28;20026;-70
2023/05/22 03:55:02;;;;;;;29.35;19.17;;;;;;;14.27;100.00;101318.19;4989501;28;20030;-70
2023/05/22 03:57:27;;;;;;;33.95;20.60;;;;;;;14.26;100.00;101311.19;4989104;28;20062;-70
2023/05/22 03:59:53;;;;;;;27.30;20.85;;;;;;;14.27;100.00;101309.31;4989387;28;20088;-70
2023/05/22 04:02:19;;;;;;;30.10;21.70;;;;;;;14.28;100.00;101313.63;4989029;28;20045;-70
2023/05/22 04:04:47;;;;;;;30.45;19.15;;;;;;;14.27;100.00;101312.81;4989093;28;20033;-70
2023/05/22 04:07:13;;;;;;;37.85;22.67;;;;;;;14.27;100.00;101312.81;4988964;28;20038;-70
2023/05/22 04:09:38;;;;;;;33.42;21.40;;;;;;;14.25;100.00;101307.69;4988953;28;20635;-70
2023/05/22 04:12:05;;;;;;;32.03;21.15;;;;;;;14.31;100.00;101314.06;4988932;28;20429;-70
2023/05/22 04:14:31;;;;;;;31.92;20.65;;;;;;;14.33;100.00;101327.25;4989115;28;20040;-70
2023/05/22 04:16:56;;;;;;;31.20;20.33;;;;;;;14.34;100.00;101328.91;4970444;28;20031;-70
2023/05/22 04:19:22;;;;;;;32.33;22.77;;;;;;;14.36;100.00;101332.22;4971135;28;20041;-70
2023/05/22 04:21:47;;;;;;;29.05;20.08;;;;;;;14.33;100.00;101329.94;4988960;28;20029;-70
2023/05/22 04:24:13;;;;;;;31.70;22.85;;;;;;;14.37;100.00;101329.31;4989008;28;20081;-70
2023/05/22 04:26:38;;;;;;;31.60;23.58;;;;;;;14.34;100.00;101312.81;4988896;28;20473;-70
2023/05/22 04:29:09;;;;;;;31.30;24.23;;;;;;;14.38;100.00;101320.25;4992384;28;20038;-71
2023/05/22 04:31:37;;;;;;;34.55;25.90;;;;;;;14.39;100.00;101329.09;4992814;28;20084;-71
2023/05/22 04:34:04;;;;;;;32.22;23.80;;;;;;;14.36;100.00;101333.03;4987989;28;20034;-72
2023/05/22 04:36:29;;;;;;;33.85;25.80;;;;;;;14.36;100.00;101326.84;4982421;28;20031;-72
2023/05/22 04:38:55;;;;;;;32.00;23.40;;;;;;;14.35;100.00;101330.56;4986508;28;20283;-72
2023/05/22 04:41:25;;;;;;;36.60;24.10;;;;;;;14.38;100.00;101336.34;4986601;28;20030;-72
2023/05/22 04:43:51;;;;;;;30.77;24.38;;;;;;;14.38;100.00;101336.34;4992599;28;20847;-72
2023/05/22 04:46:17;;;;;;;36.63;23.88;;;;;;;14.33;100.00;101330.78;4974204;28;20038;-72
2023/05/22 04:48:43;;;;;;;35.63;24.40;;;;;;;14.39;100.00;101340.66;4973931;28;20034;-72
2023/05/22 04:51:08;;;;;;;36.60;23.50;;;;;;;14.43;100.00;101341.88;4978322;28;20433;-72
2023/05/22 04:53:34;;;;;;;33.03;22.33;;;;;;;14.39;100.00;101343.34;4979008;28;20069;-72
2023/05/22 04:56:00;;;;;;;36.72;25.70;;;;;;;14.37;100.00;101348.09;4981785;28;20699;-72
2023/05/22 04:58:28;;;;;;;33.75;23.17;;;;;;;14.33;100.00;101354.06;4982458;28;20164;-72
2023/05/22 05:00:56;;;;;;;38.33;25.27;;;;;;;14.29;100.00;101358.22;4983915;28;20039;-72
2023/05/22 05:03:22;;;;;;;35.53;25.92;;;;;;;14.19;100.00;101347.91;4986151;28;20030;-72
2023/05/22 05:05:48;;;;;;;34.35;25.80;;;;;;;14.14;100.00;101350.41;4981329;28;20023;-72
2023/05/22 05:08:13;;;;;;;36.30;22.95;;;;;;;14.21;100.00;101364.63;4979091;28;20390;-72
2023/05/22 05:10:38;;;;;;;33.15;24.48;;;;;;;14.16;100.00;101351.84;4983111;28;20057;-72
2023/05/22 05:13:04;;;;;;;36.85;24.85;;;;;;;14.20;100.00;101362.97;4985573;28;20030;-72
2023/05/22 05:15:29;;;;;;;32.20;23.85;;;;;;;14.22;100.00;101358.22;4982479;28;20030;-72
2023/05/22 05:17:55;;;;;;;35.78;26.13;;;;;;;14.23;100.00;101358.03;4978862;28;20038;-72
2023/05/22 05:20:20;;;;;;;39.60;25.45;;;;;;;14.18;100.00;101355.13;4981355;28;20068;-72
2023/05/22 05:22:46;;;;;;;35.63;25.40;;;;;;;14.21;100.00;101361.94;4981124;28;20026;-72
2023/05/22 05:25:11;;;;;;;41.42;28.38;;;;;;;14.17;100.00;101363.38;4982859;28;20520;-72
2023/05/22 05:27:37;;;;;;;35.33;26.13;;;;;;;14.20;100.00;101362.97;4986502;28;20116;-72
2023/05/22 05:30:03;;;;;;;37.53;27.23;;;;;;;14.21;100.00;101361.94;4986846;28;20082;-72
2023/05/22 05:32:30;;;;;;;41.00;27.83;;;;;;;14.05;100.00;101344.44;4980015;28;20035;-72
2023/05/22 05:34:55;;;;;;;40.00;27.35;;;;;;;14.24;100.00;101365.03;4981020;28;20034;-72
2023/05/22 05:37:21;;;;;;;45.30;29.48;;;;;;;14.33;100.00;101371.03;4983875;28;20034;-72
2023/05/22 05:39:47;;;;;;;41.83;29.38;;;;;;;14.33;100.00;101359.44;4979676;28;20035;-72
2023/05/22 05:42:12;;;;;;;39.67;25.30;;;;;;;14.39;100.00;101369.38;4982735;28;20033;-72
2023/05/22 05:44:37;;;;;;;38.85;27.40;;;;;;;14.37;100.00;101366.06;4984119;28;20372;-72
2023/05/22 05:47:03;;;;;;;34.03;25.10;;;;;;;14.31;100.00;101364.22;4979721;28;20090;-72
2023/05/22 05:49:28;;;;;;;38.78;25.17;;;;;;;14.36;100.00;101370.59;4983648;28;20516;-72
2023/05/22 05:51:54;;;;;;;37.22;25.42;;;;;;;14.40;100.00;101377.19;4983066;28;20042;-72
2023/05/22 05:54:20;;;;;;;36.45;23.10;;;;;;;14.40;100.00;101384.41;4983484;28;20094;-72
2023/05/22 05:56:45;;;;;;;35.65;24.40;;;;;;;14.42;100.00;101385.03;4980035;28;20065;-72
2023/05/22 05:59:11;;;;;;;33.83;23.73;;;;;;;14.33;100.00;101373.72;4983046;28;20050;-72
2023/05/22 06:01:38;;;;;;;41.85;25.80;;;;;;;14.36;100.00;101381.34;4984537;28;20022;-72
2023/05/22 06:04:04;;;;;;;35.88;25.45;;;;;;;14.32;100.00;101385.47;4983702;28;20023;-72
2023/05/22 06:06:34;;;;;;;35.70;24.27;;;;;;;14.30;100.00;101382.16;4989071;28;20077;-76
2023/05/22 06:09:00;;;;;;;37.00;24.80;;;;;;;14.31;100.00;101377.63;4979120;28;20113;-75
2023/05/22 06:11:25;;;;;;;42.85;26.75;;;;;;;14.33;100.00;101378.22;4972643;28;20104;-76
2023/05/22 06:13:50;;;;;;;38.25;25.70;;;;;;;14.37;100.00;101382.16;4955102;28;20066;-76
2023/05/22 06:16:16;;;;;;;39.38;26.95;;;;;;;14.39;100.00;101388.16;4975271;28;20026;-75
2023/05/22 06:18:41;;;;;;;42.75;27.45;;;;;;;14.46;100.00;101395.16;4981281;28;20084;-75
2023/05/22 06:21:07;;;;;;;40.92;27.33;;;;;;;14.45;100.00;101398.84;4986784;28;20030;-75
2023/05/22 06:23:32;;;;;;;54.33;29.25;;;;;;;14.43;100.00;101389.38;4972326;28;20026;-75
2023/05/22 06:25:57;;;;;;;47.13;25.67;;;;;;;14.50;100.00;101384.81;4987537;28;20373;-75
2023/05/22 06:28:23;;;;;;;52.00;30.30;;;;;;;14.51;100.00;101394.50;4987805;28;20045;-75
2023/05/22 06:30:49;;;;;;;42.40;27.50;;;;;;;14.57;100.00;101390.22;4981049;28;20129;-75
2023/05/22 06:33:14;;;;;;;45.38;26.70;;;;;;;14.63;100.00;101394.72;4972248;28;20521;-75
2023/05/22 06:35:40;;;;;;;44.28;30.02;;;;;;;14.72;100.00;101396.16;4986017;28;20397;-75
2023/05/22 06:38:06;;;;;;;41.83;26.48;;;;;;;14.82;100.00;101399.22;4979293;28;20035;-75
2023/05/22 06:40:31;;;;;;;43.55;28.55;;;;;;;14.93;100.00;101403.09;4990498;28;20100;-75
2023/05/22 06:42:58;;;;;;;43.22;29.98;;;;;;;15.03;100.00;101395.44;4990622;28;20030;-75
2023/05/22 06:45:23;;;;;;;40.03;28.45;;;;;;;15.15;100.00;101394.78;4988755;28;20065;-75
2023/05/22 06:47:52;;;;;;;40.63;25.27;;;;;;;15.31;100.00;101394.28;4984751;28;20039;-72
2023/05/22 06:50:18;;;;;;;42.40;29.83;;;;;;;15.41;100.00;101404.56;4990355;28;20034;-73
2023/05/22 06:52:43;;;;;;;38.78;28.58;;;;;;;15.51;100.00;101397.69;4990300;28;20042;-72
2023/05/22 06:55:08;;;;;;;36.15;25.02;;;;;;;15.65;100.00;101408.38;4972837;28;20038;-72
2023/05/22 06:57:34;;;;;;;40.47;26.40;;;;;;;15.69;100.00;101399.69;4971510;28;20058;-72
2023/05/22 07:00:00;;;;;;;40.00;28.17;;;;;;;15.78;100.00;101414.50;4990172;28;20622;-73
2023/05/22 07:02:25;;;;;;;44.10;28.55;;;;;;;15.80;100.00;101406.22;4990181;28;20588;-73
2023/05/22 07:04:53;;;;;;;48.05;29.25;;;;;;;15.86;100.00;101415.28;4990081;28;20058;-73
2023/05/22 07:07:19;;;;;;;41.42;25.38;;;;;;;15.86;100.00;101402.66;4989708;28;20041;-73
2023/05/22 07:09:44;;;;;;;39.53;26.52;;;;;;;16.02;100.00;101422.00;4972358;28;20038;-73
2023/05/22 07:12:10;;;;;;;36.55;25.40;;;;;;;16.07;100.00;101428.38;4989879;28;20027;-73
2023/05/22 07:14:35;;;;;;;34.95;25.80;;;;;;;16.10;100.00;101429.78;4990102;28;20038;-73
2023/05/22 07:17:00;;;;;;;42.50;24.42;;;;;;;16.12;100.00;101438.47;4989655;28;20112;-74
2023/05/22 07:19:26;;;;;;;41.33;25.55;;;;;;;16.10;100.00;101433.31;4989461;28;20039;-73
2023/05/22 07:21:51;;;;;;;42.30;26.75;;;;;;;16.18;100.00;101434.91;4989679;28;20436;-73
2023/05/22 07:24:17;;;;;;;39.17;26.90;;;;;;;16.15;100.00;101428.09;4989706;28;20034;-73
2023/05/22 07:26:45;;;;;;;39.60;26.33;;;;;;;16.19;100.00;101423.94;4987647;28;20118;-76
2023/05/22 07:29:12;;;;;;;37.72;25.65;;;;;;;16.34;100.00;101426.28;4980239;28;20683;-79
2023/05/22 07:31:38;;;;;;;36.03;25.08;;;;;;;16.43;100.00;101441.13;4980740;28;20038;-72
2023/05/22 07:34:03;;;;;;;38.30;24.88;;;;;;;16.48;100.00;101434.22;4980851;28;21034;-72
2023/05/22 07:36:30;;;;;;;37.95;26.30;;;;;;;16.49;100.00;101431.31;4981329;28;21001;-72
2023/05/22 07:38:56;;;;;;;40.22;24.75;;;;;;;16.65;100.00;101440.69;4980086;28;20053;-71
2023/05/22 07:41:22;;;;;;;35.58;23.52;;;;;;;16.67;100.00;101437.78;4980680;28;20145;-71
2023/05/22 07:43:48;;;;;;;39.90;25.33;;;;;;;16.80;100.00;101446.59;4980628;28;20161;-71
2023/05/22 07:46:14;;;;;;;37.65;25.95;;;;;;;16.83;100.00;101429.97;4963324;28;20026;-75
2023/05/22 07:48:39;;;;;;;36.75;24.33;;;;;;;16.92;100.00;101445.84;4980309;28;20042;-75
2023/05/22 07:51:04;;;;;;;40.70;26.85;;;;;;;16.96;100.00;101445.16;4981386;28;20034;-74
2023/05/22 07:53:30;;;;;;;38.42;24.38;;;;;;;16.95;100.00;101446.22;4965772;28;20493;-70
2023/05/22 07:55:56;;;;;;;41.45;24.48;;;;;;;17.00;100.00;101442.84;4980383;28;20069;-69
2023/05/22 07:58:23;;;;;;;32.90;24.70;;;;;;;17.09;100.00;101453.09;4946364;28;20073;-69
2023/05/22 08:00:48;;;;;;;35.35;22.70;;;;;;;17.15;100.00;101445.16;4980734;28;20034;-69
2023/05/22 08:03:14;;;;;;;37.33;25.50;;;;;;;17.18;100.00;101440.13;4965049;28;20045;-73
2023/05/22 08:05:39;;;;;;;34.92;23.98;;;;;;;17.52;100.00;101449.44;4980779;28;20031;-73
2023/05/22 08:08:04;;;;;;;40.50;25.45;;;;;;;17.79;100.00;101446.44;4980035;28;20026;-71
2023/05/22 08:10:30;;;;;;;35.47;25.52;;;;;;;17.89;100.00;101449.38;4980752;28;20156;-77
2023/05/22 08:12:57;;;;;;;36.17;22.77;;;;;;;17.98;100.00;101422.06;4980797;28;20031;-71
2023/05/22 08:15:23;;;;;;;36.85;24.67;;;;;;;19.21;100.00;101444.59;4972642;28;20130;-72
2023/05/22 08:17:48;;;;;;;35.42;20.27;;;;;;;20.63;93.77;101455.50;4955947;28;21106;-72
2023/05/22 08:20:13;;;;;;;32.10;19.88;;;;;;;21.30;88.46;101441.72;4989039;28;20084;-72
2023/05/22 08:22:40;;;;;;;36.40;21.02;;;;;;;21.82;84.19;101446.63;4989392;28;20385;-72
2023/05/22 08:25:05;;;;;;;29.23;20.50;;;;;;;22.63;81.76;101429.31;4989070;28;20030;-72
2023/05/22 08:27:31;;;;;;;38.25;23.73;;;;;;;23.36;76.26;101444.91;4989401;28;20135;-72
2023/05/22 08:29:56;;;;;;;36.42;22.88;;;;;;;23.63;73.99;101440.06;4988946;28;20031;-72
2023/05/22 08:32:21;;;;;;;30.90;19.00;;;;;;;24.11;72.89;101439.03;4988852;28;20038;-72
2023/05/22 08:34:47;;;;;;;33.40;22.63;;;;;;;23.82;73.00;101439.59;4988979;28;20046;-72
2023/05/22 08:37:13;;;;;;;39.78;21.13;;;;;;;24.24;71.73;101439.31;4989079;28;20030;-72
2023/05/22 08:39:39;;;;;;;32.80;19.17;;;;;;;24.66;68.95;101446.34;4989103;28;20034;-72
2023/05/22 08:42:05;;;;;;;31.23;19.27;;;;;;;25.27;67.94;101442.59;4988996;28;20026;-72
2023/05/22 08:44:30;;;;;;;31.70;20.15;;;;;;;25.53;64.67;101443.25;4988841;28;20121;-72
2023/05/22 08:46:58;;;;;;;29.77;19.83;;;;;;;25.63;64.53;101438.84;4988780;28;20497;-72
2023/05/22 08:49:24;;;;;;;28.90;20.52;;;;;;;25.36;65.58;101440.06;4989050;28;20113;-72
2023/05/22 08:51:55;;;;;;;35.60;20.30;;;;;;;24.79;67.78;101438.69;4989040;28;20177;-72
2023/05/22 08:54:23;;;;;;;28.98;16.83;;;;;;;25.18;68.54;101441.56;4988446;28;20037;-72
2023/05/22 08:56:49;;;;;;;28.10;21.20;;;;;;;24.89;66.20;101446.84;4988993;28;20081;-72
2023/05/22 08:59:15;;;;;;;30.33;20.33;;;;;;;23.87;70.49;101445.03;4988470;28;20330;-72
2023/05/22 09:01:40;;;;;;;32.10;18.45;;;;;;;22.79;74.30;101437.56;4988868;28;20113;-72
2023/05/22 09:04:06;;;;;;;35.45;21.38;;;;;;;22.27;79.42;101447.31;4988772;28;20113;-72
2023/05/22 09:06:31;;;;;;;30.50;20.67;;;;;;;21.64;80.64;101446.97;4989075;28;20389;-72
2023/05/22 09:09:00;;;;;;;31.58;20.42;;;;;;;21.13;83.29;101443.69;4971308;28;20030;-72
2023/05/22 09:11:25;;;;;;;32.45;21.98;;;;;;;20.61;85.36;101411.53;4971908;28;20031;-72
2023/05/22 09:13:51;;;;;;;35.13;23.15;;;;;;;20.60;88.05;101445.16;4970173;28;20041;-72
2023/05/22 09:16:17;;;;;;;33.35;19.83;;;;;;;20.40;90.02;101441.03;4939861;28;20126;-72
2023/05/22 09:18:43;;;;;;;30.02;22.20;;;;;;;20.33;92.12;101440.34;4989415;28;20022;-71
2023/05/22 09:21:10;;;;;;;32.42;20.88;;;;;;;20.34;92.05;101428.47;4990239;28;20562;-72
2023/05/22 09:23:36;;;;;;;35.53;22.63;;;;;;;20.53;91.26;101431.72;4973758;28;20085;-71
2023/05/22 09:26:02;;;;;;;32.33;20.58;;;;;;;20.52;92.54;101433.63;4986056;28;20058;-72
2023/05/22 09:28:35;;;;;;;30.40;22.10;;;;;;;20.51;90.50;101437.41;4974108;28;20038;-72
2023/05/22 09:31:02;;;;;;;33.28;23.60;;;;;;;20.57;92.63;101432.91;4976359;28;20030;-72
2023/05/22 09:33:28;;;;;;;30.83;21.90;;;;;;;20.65;90.06;101424.34;4959014;28;20046;-72
2023/05/22 09:35:54;;;;;;;31.92;20.58;;;;;;;20.81;88.95;101436.22;4987897;28;20034;-72
2023/05/22 09:38:28;;;;;;;33.13;22.55;;;;;;;20.90;90.49;101432.00;4990727;28;20057;-72
2023/05/22 09:40:54;;;;;;;30.95;21.15;;;;;;;20.88;88.70;101431.44;4988765;28;20146;-71
2023/05/22 09:43:22;;;;;;;31.17;21.25;;;;;;;20.91;89.71;101432.84;4981157;28;20131;-71
2023/05/22 09:45:47;;;;;;;29.55;20.23;;;;;;;20.98;89.74;101422.59;4989969;28;20030;-71
2023/05/22 09:48:15;;;;;;;31.30;22.77;;;;;;;20.99;89.50;101432.41;4966773;28;20080;-74
2023/05/22 09:50:45;;;;;;;30.52;22.70;;;;;;;20.96;90.58;101420.16;4981087;28;20101;-73
2023/05/22 09:53:15;;;;;;;32.22;21.08;;;;;;;20.95;90.21;101418.50;4974929;28;20034;-73
2023/05/22 09:55:40;;;;;;;34.45;21.80;;;;;;;21.08;89.28;101414.59;4991657;28;20030;-73
2023/05/22 09:58:08;;;;;;;33.10;20.42;;;;;;;21.25;89.10;101417.25;4991346;28;20421;-72
2023/05/22 10:00:35;;;;;;;29.67;20.05;;;;;;;21.30;88.17;101420.00;4984397;28;20049;-73
2023/05/22 10:03:16;;;;;;;30.05;20.60;;;;;;;21.39;90.50;101417.69;4975911;28;20039;-73
2023/05/22 10:05:47;;;;;;;29.83;19.35;;;;;;;21.56;90.40;101415.72;4973099;28;20932;-74
2023/05/22 10:08:37;;;;;;;37.80;21.33;;;;;;;21.71;89.60;101415.00;4976766;28;20034;-73
2023/05/22 10:11:05;;;;;;;30.73;22.05;;;;;;;21.66;84.78;101418.50;4991124;28;20134;-74
2023/05/22 10:13:31;;;;;;;30.42;20.00;;;;;;;21.73;85.87;101404.72;4991126;28;20504;-73
2023/05/22 10:15:58;;;;;;;29.00;21.45;;;;;;;21.87;88.20;101408.63;4989843;28;20050;-73
2023/05/22 10:18:25;;;;;;;31.33;20.27;;;;;;;21.86;85.60;101417.88;4978782;28;20031;-72
2023/05/22 10:20:51;;;;;;;28.45;19.67;;;;;;;21.85;86.06;101410.81;4986994;28;20038;-73
2023/05/22 10:23:17;;;;;;;31.50;20.23;;;;;;;21.86;85.85;101412.44;4988806;28;20069;-73
2023/05/22 10:25:46;;;;;;;30.55;20.45;;;;;;;21.97;85.14;101407.09;4973313;28;20426;-73
2023/05/22 10:28:15;;;;;;;31.80;17.38;;;;;;;21.93;85.84;101408.69;4957358;28;20101;-72
2023/05/22 10:30:59;;;;;;;30.25;20.48;;;;;;;21.88;85.26;101410.28;4972182;28;20073;-73
2023/05/22 10:33:40;;;;;;;28.85;18.92;;;;;;;21.99;84.98;101404.94;4972164;28;20700;-72
2023/05/22 10:36:34;;;;;;;28.35;19.15;;;;;;;22.13;85.09;101416.19;4973678;28;20037;-73
2023/05/22 10:39:39;;;;;;;30.17;20.13;;;;;;;22.23;83.85;101408.13;4979721;28;20042;-72
2023/05/22 10:42:04;;;;;;;27.75;19.60;;;;;;;22.23;83.39;101405.41;4982914;28;20034;-73
2023/05/22 10:44:32;;;;;;;29.45;19.70;;;;;;;22.33;83.08;101408.22;4972144;28;20053;-72
2023/05/22 10:46:57;;;;;;;28.38;19.25;;;;;;;22.36;79.98;101402.25;4971857;28;20086;-72
2023/05/22 10:49:24;;;;;;;27.75;19.83;;;;;;;22.52;80.80;101398.53;4972104;28;20066;-72
2023/05/22 10:51:56;;;;;;;37.38;22.13;;;;;;;22.57;80.56;101408.63;4972339;28;20073;-73
2023/05/22 10:54:41;;;;;;;31.25;19.48;;;;;;;22.61;80.68;101398.88;4977428;28;20045;-72
2023/05/22 10:57:14;;;;;;;29.52;20.90;;;;;;;22.58;81.93;101399.38;4986562;28;20046;-72
2023/05/22 10:59:40;;;;;;;31.73;20.02;;;;;;;22.59;81.42;101392.88;4990165;28;20442;-73
2023/05/22 11:02:40;;;;;;;27.02;18.73;;;;;;;22.73;81.39;101395.94;4962438;28;20110;-73
2023/05/22 11:05:17;;;;;;;30.45;19.10;;;;;;;22.91;80.29;101400.09;4975919;28;20434;-72